sensor_id;sensor_type;location;lat;lon;timestamp;P1;durP1;ratioP1;P2;durP2;ratioP2
19788;SDS011;10054;59.332;18.244;2023-08-21T00:01:59;37.10;;;14.90;;
19788;SDS011;10054;59.332;18.244;2023-08-21T00:04:28;101.85;;;14.55;;
19788;SDS011;10054;59.332;18.244;2023-08-21T00:06:57;52.67;;;15.45;;
19788;SDS011;10054;59.332;18.244;2023-08-21T00:09:25;53.15;;;14.68;;
19788;SDS011;10054;59.332;18.244;2023-08-21T00:11:54;30.35;;;14.35;;
19788;SDS011;10054;59.332;18.244;2023-08-21T00:14:22;47.50;;;13.50;;
19788;SDS011;10054;59.332;18.244;2023-08-21T00:16:51;36.98;;;14.40;;
19788;SDS011;10054;59.332;18.244;2023-08-21T00:19:20;24.35;;;13.93;;
19788;SDS011;10054;59.332;18.244;2023-08-21T00:21:49;23.73;;;13.43;;
19788;SDS011;10054;59.332;18.244;2023-08-21T00:24:17;26.50;;;14.47;;
19788;SDS011;10054;59.332;18.244;2023-08-21T00:26:46;40.48;;;13.95;;
19788;SDS011;10054;59.332;18.244;2023-08-21T00:29:15;21.90;;;13.65;;
19788;SDS011;10054;59.332;18.244;2023-08-21T00:31:43;24.23;;;13.22;;
19788;SDS011;10054;59.332;18.244;2023-08-21T00:34:12;27.00;;;13.80;;
19788;SDS011;10054;59.332;18.244;2023-08-21T00:36:41;26.62;;;13.60;;
19788;SDS011;10054;59.332;18.244;2023-08-21T00:39:11;27.35;;;14.40;;
19788;SDS011;10054;59.332;18.244;2023-08-21T00:41:39;24.23;;;13.78;;
19788;SDS011;10054;59.332;18.244;2023-08-21T00:44:09;22.07;;;13.83;;
19788;SDS011;10054;59.332;18.244;2023-08-21T00:46:39;22.02;;;13.78;;
19788;SDS011;10054;59.332;18.244;2023-08-21T00:49:08;24.10;;;14.70;;
19788;SDS011;10054;59.332;18.244;2023-08-21T00:51:39;19.07;;;13.48;;
19788;SDS011;10054;59.332;18.244;2023-08-21T00:54:08;20.33;;;13.93;;
19788;SDS011;10054;59.332;18.244;2023-08-21T00:56:38;21.53;;;14.63;;
19788;SDS011;10054;59.332;18.244;2023-08-21T00:59:07;21.80;;;14.27;;
19788;SDS011;10054;59.332;18.244;2023-08-21T01:01:36;19.87;;;14.47;;
19788;SDS011;10054;59.332;18.244;2023-08-21T01:04:06;18.60;;;13.70;;
19788;SDS011;10054;59.332;18.244;2023-08-21T01:06:36;18.37;;;13.83;;
19788;SDS011;10054;59.332;18.244;2023-08-21T01:09:14;21.57;;;13.68;;
19788;SDS011;10054;59.332;18.244;2023-08-21T01:11:55;20.75;;;13.93;;
19788;SDS011;10054;59.332;18.244;2023-08-21T01:14:36;22.13;;;14.47;;
19788;SDS011;10054;59.332;18.244;2023-08-21T01:17:00;19.15;;;13.28;;
19788;SDS011;10054;59.332;18.244;2023-08-21T01:19:35;21.48;;;14.87;;
19788;SDS011;10054;59.332;18.244;2023-08-21T01:22:06;20.83;;;14.13;;
19788;SDS011;10054;59.332;18.244;2023-08-21T01:24:36;19.80;;;14.30;;
19788;SDS011;10054;59.332;18.244;2023-08-21T01:27:07;24.53;;;15.33;;
19788;SDS011;10054;59.332;18.244;2023-08-21T01:29:38;19.62;;;14.13;;
19788;SDS011;10054;59.332;18.244;2023-08-21T01:34:55;19.17;;;14.43;;
19788;SDS011;10054;59.332;18.244;2023-08-21T01:37:24;16.87;;;13.32;;
19788;SDS011;10054;59.332;18.244;2023-08-21T01:39:57;18.25;;;13.45;;
19788;SDS011;10054;59.332;18.244;2023-08-21T01:42:25;20.17;;;14.33;;
19788;SDS011;10054;59.332;18.244;2023-08-21T01:44:54;20.20;;;14.33;;
19788;SDS011;10054;59.332;18.244;2023-08-21T01:47:23;19.48;;;13.58;;
19788;SDS011;10054;59.332;18.244;2023-08-21T01:49:51;20.52;;;13.90;;
19788;SDS011;10054;59.332;18.244;2023-08-21T01:52:20;21.15;;;13.30;;
19788;SDS011;10054;59.332;18.244;2023-08-21T01:54:52;17.15;;;13.38;;
19788;SDS011;10054;59.332;18.244;2023-08-21T01:57:20;16.95;;;13.03;;
19788;SDS011;10054;59.332;18.244;2023-08-21T01:59:49;15.93;;;11.97;;
19788;SDS011;10054;59.332;18.244;2023-08-21T02:02:18;20.88;;;12.95;;
19788;SDS011;10054;59.332;18.244;2023-08-21T02:04:46;14.65;;;12.15;;
19788;SDS011;10054;59.332;18.244;2023-08-21T02:07:16;18.37;;;13.60;;
19788;SDS011;10054;59.332;18.244;2023-08-21T02:09:44;17.20;;;13.43;;
19788;SDS011;10054;59.332;18.244;2023-08-21T02:12:13;19.10;;;12.93;;
19788;SDS011;10054;59.332;18.244;2023-08-21T02:14:41;17.45;;;12.88;;
19788;SDS011;10054;59.332;18.244;2023-08-21T02:17:10;16.27;;;12.50;;
19788;SDS011;10054;59.332;18.244;2023-08-21T02:19:40;19.50;;;14.33;;
19788;SDS011;10054;59.332;18.244;2023-08-21T02:22:09;17.03;;;13.30;;
19788;SDS011;10054;59.332;18.244;2023-08-21T02:24:37;17.53;;;12.93;;
19788;SDS011;10054;59.332;18.244;2023-08-21T02:27:08;17.62;;;13.45;;
19788;SDS011;10054;59.332;18.244;2023-08-21T02:29:38;16.37;;;12.88;;
19788;SDS011;10054;59.332;18.244;2023-08-21T02:32:07;19.23;;;13.17;;
19788;SDS011;10054;59.332;18.244;2023-08-21T02:34:35;17.77;;;12.50;;
19788;SDS011;10054;59.332;18.244;2023-08-21T02:37:07;14.45;;;11.83;;
19788;SDS011;10054;59.332;18.244;2023-08-21T02:39:35;14.58;;;11.78;;
19788;SDS011;10054;59.332;18.244;2023-08-21T02:42:04;11.18;;;9.98;;
19788;SDS011;10054;59.332;18.244;2023-08-21T02:44:32;11.23;;;9.93;;
19788;SDS011;10054;59.332;18.244;2023-08-21T02:47:02;12.35;;;10.95;;
19788;SDS011;10054;59.332;18.244;2023-08-21T02:49:31;14.83;;;11.53;;
19788;SDS011;10054;59.332;18.244;2023-08-21T02:51:59;12.65;;;10.63;;
19788;SDS011;10054;59.332;18.244;2023-08-21T02:54:28;12.27;;;10.87;;
19788;SDS011;10054;59.332;18.244;2023-08-21T02:56:56;14.13;;;11.05;;
19788;SDS011;10054;59.332;18.244;2023-08-21T02:59:30;12.60;;;10.40;;
19788;SDS011;10054;59.332;18.244;2023-08-21T03:01:59;15.40;;;10.40;;
19788;SDS011;10054;59.332;18.244;2023-08-21T03:04:28;11.40;;;10.23;;
19788;SDS011;10054;59.332;18.244;2023-08-21T03:06:56;13.83;;;10.82;;
19788;SDS011;10054;59.332;18.244;2023-08-21T03:09:25;13.00;;;10.73;;
19788;SDS011;10054;59.332;18.244;2023-08-21T03:11:54;11.93;;;10.53;;
19788;SDS011;10054;59.332;18.244;2023-08-21T03:14:22;11.30;;;10.10;;
19788;SDS011;10054;59.332;18.244;2023-08-21T03:16:52;11.45;;;9.70;;
19788;SDS011;10054;59.332;18.244;2023-08-21T03:19:21;14.85;;;10.00;;
19788;SDS011;10054;59.332;18.244;2023-08-21T03:21:50;11.38;;;9.68;;
19788;SDS011;10054;59.332;18.244;2023-08-21T03:24:19;12.35;;;9.63;;
19788;SDS011;10054;59.332;18.244;2023-08-21T03:26:48;12.00;;;10.08;;
19788;SDS011;10054;59.332;18.244;2023-08-21T03:29:16;11.80;;;10.30;;
19788;SDS011;10054;59.332;18.244;2023-08-21T03:31:57;10.43;;;9.35;;
19788;SDS011;10054;59.332;18.244;2023-08-21T03:34:19;12.25;;;10.23;;
19788;SDS011;10054;59.332;18.244;2023-08-21T03:36:48;13.83;;;10.37;;
19788;SDS011;10054;59.332;18.244;2023-08-21T03:39:17;12.57;;;10.80;;
19788;SDS011;10054;59.332;18.244;2023-08-21T03:41:47;12.45;;;10.40;;
19788;SDS011;10054;59.332;18.244;2023-08-21T03:44:15;10.93;;;9.80;;
19788;SDS011;10054;59.332;18.244;2023-08-21T03:46:44;13.32;;;10.13;;
19788;SDS011;10054;59.332;18.244;2023-08-21T03:49:14;16.10;;;11.53;;
19788;SDS011;10054;59.332;18.244;2023-08-21T03:51:42;13.62;;;11.08;;
19788;SDS011;10054;59.332;18.244;2023-08-21T03:54:11;12.25;;;10.95;;
19788;SDS011;10054;59.332;18.244;2023-08-21T03:56:40;11.18;;;9.93;;
19788;SDS011;10054;59.332;18.244;2023-08-21T03:59:08;13.22;;;10.18;;
19788;SDS011;10054;59.332;18.244;2023-08-21T04:01:37;15.73;;;11.50;;
19788;SDS011;10054;59.332;18.244;2023-08-21T04:04:05;13.88;;;10.63;;
19788;SDS011;10054;59.332;18.244;2023-08-21T04:06:34;13.13;;;10.08;;
19788;SDS011;10054;59.332;18.244;2023-08-21T04:09:03;12.23;;;10.70;;
19788;SDS011;10054;59.332;18.244;2023-08-21T04:11:33;12.37;;;10.67;;
19788;SDS011;10054;59.332;18.244;2023-08-21T04:14:02;15.63;;;9.90;;
19788;SDS011;10054;59.332;18.244;2023-08-21T04:16:31;12.10;;;10.80;;
19788;SDS011;10054;59.332;18.244;2023-08-21T04:19:00;12.00;;;10.72;;
19788;SDS011;10054;59.332;18.244;2023-08-21T04:21:29;12.30;;;9.70;;
19788;SDS011;10054;59.332;18.244;2023-08-21T04:23:57;12.68;;;10.55;;
19788;SDS011;10054;59.332;18.244;2023-08-21T04:26:26;11.50;;;10.30;;
19788;SDS011;10054;59.332;18.244;2023-08-21T04:28:55;11.80;;;10.07;;
19788;SDS011;10054;59.332;18.244;2023-08-21T04:31:23;11.12;;;9.63;;
19788;SDS011;10054;59.332;18.244;2023-08-21T04:33:53;9.70;;;8.70;;
19788;SDS011;10054;59.332;18.244;2023-08-21T04:36:21;9.73;;;8.50;;
19788;SDS011;10054;59.332;18.244;2023-08-21T04:38:50;8.95;;;8.05;;
19788;SDS011;10054;59.332;18.244;2023-08-21T04:41:20;6.90;;;6.20;;
19788;SDS011;10054;59.332;18.244;2023-08-21T04:43:49;6.45;;;5.87;;
19788;SDS011;10054;59.332;18.244;2023-08-21T04:46:17;6.47;;;5.90;;
19788;SDS011;10054;59.332;18.244;2023-08-21T04:48:47;5.33;;;4.92;;
19788;SDS011;10054;59.332;18.244;2023-08-21T04:51:15;5.75;;;4.72;;
19788;SDS011;10054;59.332;18.244;2023-08-21T04:53:44;4.80;;;4.40;;
19788;SDS011;10054;59.332;18.244;2023-08-21T04:56:14;4.80;;;4.40;;
19788;SDS011;10054;59.332;18.244;2023-08-21T04:58:43;4.47;;;4.08;;
19788;SDS011;10054;59.332;18.244;2023-08-21T05:01:12;5.10;;;4.00;;
19788;SDS011;10054;59.332;18.244;2023-08-21T05:03:42;5.00;;;4.50;;
19788;SDS011;10054;59.332;18.244;2023-08-21T05:06:11;5.12;;;4.67;;
19788;SDS011;10054;59.332;18.244;2023-08-21T05:08:40;4.67;;;4.28;;
19788;SDS011;10054;59.332;18.244;2023-08-21T05:11:09;5.30;;;4.80;;
19788;SDS011;10054;59.332;18.244;2023-08-21T05:13:39;5.05;;;4.55;;
19788;SDS011;10054;59.332;18.244;2023-08-21T05:16:09;4.90;;;4.43;;
19788;SDS011;10054;59.332;18.244;2023-08-21T05:18:38;4.63;;;4.23;;
19788;SDS011;10054;59.332;18.244;2023-08-21T05:21:12;6.00;;;4.70;;
19788;SDS011;10054;59.332;18.244;2023-08-21T05:23:41;5.20;;;4.62;;
19788;SDS011;10054;59.332;18.244;2023-08-21T05:26:10;5.20;;;4.40;;
19788;SDS011;10054;59.332;18.244;2023-08-21T05:28:39;5.37;;;4.75;;
19788;SDS011;10054;59.332;18.244;2023-08-21T05:31:09;4.87;;;4.47;;
19788;SDS011;10054;59.332;18.244;2023-08-21T05:33:39;5.33;;;4.83;;
19788;SDS011;10054;59.332;18.244;2023-08-21T05:36:08;4.60;;;4.30;;
19788;SDS011;10054;59.332;18.244;2023-08-21T05:38:38;5.08;;;4.53;;
19788;SDS011;10054;59.332;18.244;2023-08-21T05:41:06;4.87;;;4.47;;
19788;SDS011;10054;59.332;18.244;2023-08-21T05:43:35;5.10;;;4.60;;
19788;SDS011;10054;59.332;18.244;2023-08-21T05:46:11;4.73;;;4.33;;
19788;SDS011;10054;59.332;18.244;2023-08-21T05:48:34;5.03;;;4.53;;
19788;SDS011;10054;59.332;18.244;2023-08-21T05:51:03;5.45;;;4.80;;
19788;SDS011;10054;59.332;18.244;2023-08-21T05:53:31;4.90;;;4.50;;
19788;SDS011;10054;59.332;18.244;2023-08-21T05:56:01;5.17;;;4.60;;
19788;SDS011;10054;59.332;18.244;2023-08-21T05:58:31;4.67;;;4.27;;
19788;SDS011;10054;59.332;18.244;2023-08-21T06:00:59;3.85;;;3.55;;
19788;SDS011;10054;59.332;18.244;2023-08-21T06:03:30;3.80;;;3.50;;
19788;SDS011;10054;59.332;18.244;2023-08-21T06:06:03;4.47;;;3.47;;
19788;SDS011;10054;59.332;18.244;2023-08-21T06:08:32;4.08;;;3.50;;
19788;SDS011;10054;59.332;18.244;2023-08-21T06:11:00;3.72;;;3.40;;
19788;SDS011;10054;59.332;18.244;2023-08-21T06:13:30;5.53;;;3.30;;
19788;SDS011;10054;59.332;18.244;2023-08-21T06:16:00;3.40;;;3.10;;
19788;SDS011;10054;59.332;18.244;2023-08-21T06:18:30;3.77;;;3.10;;
19788;SDS011;10054;59.332;18.244;2023-08-21T06:20:59;3.45;;;3.15;;
19788;SDS011;10054;59.332;18.244;2023-08-21T06:23:28;3.20;;;2.90;;
19788;SDS011;10054;59.332;18.244;2023-08-21T06:25:59;5.17;;;3.20;;
19788;SDS011;10054;59.332;18.244;2023-08-21T06:28:28;3.77;;;2.98;;
19788;SDS011;10054;59.332;18.244;2023-08-21T06:30:57;5.30;;;3.12;;
19788;SDS011;10054;59.332;18.244;2023-08-21T06:33:26;5.65;;;3.30;;
19788;SDS011;10054;59.332;18.244;2023-08-21T06:35:55;3.10;;;2.80;;
19788;SDS011;10054;59.332;18.244;2023-08-21T06:38:23;3.98;;;2.98;;
19788;SDS011;10054;59.332;18.244;2023-08-21T06:40:53;5.67;;;3.12;;
19788;SDS011;10054;59.332;18.244;2023-08-21T06:43:21;5.47;;;3.33;;
19788;SDS011;10054;59.332;18.244;2023-08-21T06:45:50;5.60;;;3.12;;
19788;SDS011;10054;59.332;18.244;2023-08-21T06:48:19;3.37;;;2.90;;
19788;SDS011;10054;59.332;18.244;2023-08-21T06:50:48;3.95;;;2.80;;
19788;SDS011;10054;59.332;18.244;2023-08-21T06:53:17;4.28;;;3.02;;
19788;SDS011;10054;59.332;18.244;2023-08-21T06:55:47;7.55;;;3.00;;
19788;SDS011;10054;59.332;18.244;2023-08-21T06:58:17;5.92;;;2.80;;
19788;SDS011;10054;59.332;18.244;2023-08-21T07:00:47;6.00;;;2.85;;
19788;SDS011;10054;59.332;18.244;2023-08-21T07:03:17;3.58;;;2.77;;
19788;SDS011;10054;59.332;18.244;2023-08-21T07:05:46;5.67;;;2.67;;
19788;SDS011;10054;59.332;18.244;2023-08-21T07:08:23;4.03;;;2.83;;
19788;SDS011;10054;59.332;18.244;2023-08-21T07:10:53;5.33;;;2.77;;
19788;SDS011;10054;59.332;18.244;2023-08-21T07:13:22;3.87;;;2.50;;
19788;SDS011;10054;59.332;18.244;2023-08-21T07:15:52;5.62;;;2.70;;
19788;SDS011;10054;59.332;18.244;2023-08-21T07:18:26;5.65;;;3.17;;
19788;SDS011;10054;59.332;18.244;2023-08-21T07:20:55;4.75;;;2.60;;
19788;SDS011;10054;59.332;18.244;2023-08-21T07:23:23;4.28;;;3.08;;
19788;SDS011;10054;59.332;18.244;2023-08-21T07:25:54;4.08;;;2.95;;
19788;SDS011;10054;59.332;18.244;2023-08-21T07:28:23;8.20;;;2.80;;
19788;SDS011;10054;59.332;18.244;2023-08-21T07:30:55;4.72;;;2.87;;
19788;SDS011;10054;59.332;18.244;2023-08-21T07:33:26;3.50;;;3.02;;
19788;SDS011;10054;59.332;18.244;2023-08-21T07:35:58;5.47;;;2.77;;
19788;SDS011;10054;59.332;18.244;2023-08-21T07:38:29;4.17;;;2.98;;
19788;SDS011;10054;59.332;18.244;2023-08-21T07:41:04;7.35;;;2.90;;
19788;SDS011;10054;59.332;18.244;2023-08-21T07:43:41;3.72;;;3.00;;
19788;SDS011;10054;59.332;18.244;2023-08-21T07:46:12;4.87;;;2.80;;
19788;SDS011;10054;59.332;18.244;2023-08-21T07:48:42;3.00;;;2.70;;
19788;SDS011;10054;59.332;18.244;2023-08-21T07:51:11;5.20;;;3.10;;
19788;SDS011;10054;59.332;18.244;2023-08-21T07:53:40;8.10;;;2.83;;
19788;SDS011;10054;59.332;18.244;2023-08-21T07:56:10;4.65;;;3.02;;
19788;SDS011;10054;59.332;18.244;2023-08-21T07:58:39;3.27;;;2.50;;
19788;SDS011;10054;59.332;18.244;2023-08-21T08:01:07;7.60;;;3.15;;
19788;SDS011;10054;59.332;18.244;2023-08-21T08:03:36;4.92;;;2.60;;
19788;SDS011;10054;59.332;18.244;2023-08-21T08:06:04;2.87;;;2.20;;
19788;SDS011;10054;59.332;18.244;2023-08-21T08:08:33;3.33;;;2.42;;
19788;SDS011;10054;59.332;18.244;2023-08-21T08:11:07;5.80;;;2.80;;
19788;SDS011;10054;59.332;18.244;2023-08-21T08:13:32;3.62;;;2.70;;
19788;SDS011;10054;59.332;18.244;2023-08-21T08:16:01;6.03;;;2.77;;
19788;SDS011;10054;59.332;18.244;2023-08-21T08:18:30;5.55;;;2.77;;
19788;SDS011;10054;59.332;18.244;2023-08-21T08:20:58;4.30;;;2.58;;
19788;SDS011;10054;59.332;18.244;2023-08-21T08:23:29;6.33;;;3.02;;
19788;SDS011;10054;59.332;18.244;2023-08-21T08:25:57;4.25;;;2.95;;
19788;SDS011;10054;59.332;18.244;2023-08-21T08:28:26;3.83;;;2.65;;
19788;SDS011;10054;59.332;18.244;2023-08-21T08:30:59;5.90;;;2.80;;
19788;SDS011;10054;59.332;18.244;2023-08-21T08:33:27;3.83;;;2.52;;
19788;SDS011;10054;59.332;18.244;2023-08-21T08:35:56;3.92;;;2.60;;
19788;SDS011;10054;59.332;18.244;2023-08-21T08:38:25;4.10;;;2.62;;
19788;SDS011;10054;59.332;18.244;2023-08-21T08:40:54;3.08;;;2.65;;
19788;SDS011;10054;59.332;18.244;2023-08-21T08:43:24;3.58;;;2.52;;
19788;SDS011;10054;59.332;18.244;2023-08-21T08:45:56;6.40;;;2.90;;
19788;SDS011;10054;59.332;18.244;2023-08-21T08:48:25;3.98;;;2.75;;
19788;SDS011;10054;59.332;18.244;2023-08-21T08:50:55;5.15;;;2.70;;
19788;SDS011;10054;59.332;18.244;2023-08-21T08:53:23;4.58;;;2.80;;
19788;SDS011;10054;59.332;18.244;2023-08-21T08:55:53;4.05;;;2.42;;
19788;SDS011;10054;59.332;18.244;2023-08-21T08:58:22;5.17;;;2.70;;
19788;SDS011;10054;59.332;18.244;2023-08-21T09:00:50;4.50;;;2.60;;
19788;SDS011;10054;59.332;18.244;2023-08-21T09:03:19;4.72;;;2.87;;
19788;SDS011;10054;59.332;18.244;2023-08-21T09:05:48;5.78;;;2.83;;
19788;SDS011;10054;59.332;18.244;2023-08-21T09:08:16;6.65;;;3.00;;
19788;SDS011;10054;59.332;18.244;2023-08-21T09:10:46;4.70;;;2.72;;
19788;SDS011;10054;59.332;18.244;2023-08-21T09:13:16;5.55;;;2.87;;
19788;SDS011;10054;59.332;18.244;2023-08-21T09:15:46;5.12;;;2.87;;
19788;SDS011;10054;59.332;18.244;2023-08-21T09:18:16;4.00;;;2.62;;
19788;SDS011;10054;59.332;18.244;2023-08-21T09:20:45;3.65;;;2.55;;
19788;SDS011;10054;59.332;18.244;2023-08-21T09:23:15;3.40;;;2.33;;
19788;SDS011;10054;59.332;18.244;2023-08-21T09:25:47;5.70;;;2.90;;
19788;SDS011;10054;59.332;18.244;2023-08-21T09:28:21;3.40;;;2.55;;
19788;SDS011;10054;59.332;18.244;2023-08-21T09:30:51;6.28;;;2.80;;
19788;SDS011;10054;59.332;18.244;2023-08-21T09:33:21;4.35;;;2.90;;
19788;SDS011;10054;59.332;18.244;2023-08-21T09:35:51;3.58;;;2.72;;
19788;SDS011;10054;59.332;18.244;2023-08-21T09:38:23;3.72;;;2.33;;
19788;SDS011;10054;59.332;18.244;2023-08-21T09:40:54;5.00;;;2.35;;
19788;SDS011;10054;59.332;18.244;2023-08-21T09:43:23;6.83;;;2.58;;
19788;SDS011;10054;59.332;18.244;2023-08-21T09:45:54;4.42;;;2.55;;
19788;SDS011;10054;59.332;18.244;2023-08-21T09:48:24;2.62;;;2.10;;
19788;SDS011;10054;59.332;18.244;2023-08-21T09:50:53;3.55;;;2.42;;
19788;SDS011;10054;59.332;18.244;2023-08-21T09:53:27;4.35;;;2.50;;
19788;SDS011;10054;59.332;18.244;2023-08-21T09:55:56;2.87;;;2.10;;
19788;SDS011;10054;59.332;18.244;2023-08-21T09:58:24;3.40;;;2.50;;
19788;SDS011;10054;59.332;18.244;2023-08-21T10:00:55;4.12;;;2.62;;
19788;SDS011;10054;59.332;18.244;2023-08-21T10:03:27;3.05;;;2.12;;
19788;SDS011;10054;59.332;18.244;2023-08-21T10:05:57;6.03;;;2.50;;
19788;SDS011;10054;59.332;18.244;2023-08-21T10:08:27;3.20;;;2.50;;
19788;SDS011;10054;59.332;18.244;2023-08-21T10:10:56;5.45;;;2.40;;
19788;SDS011;10054;59.332;18.244;2023-08-21T10:13:26;5.10;;;2.50;;
19788;SDS011;10054;59.332;18.244;2023-08-21T10:15:57;4.00;;;2.33;;
19788;SDS011;10054;59.332;18.244;2023-08-21T10:18:31;3.25;;;2.40;;
19788;SDS011;10054;59.332;18.244;2023-08-21T10:21:19;3.72;;;2.40;;
19788;SDS011;10054;59.332;18.244;2023-08-21T10:23:48;4.90;;;2.42;;
19788;SDS011;10054;59.332;18.244;2023-08-21T10:26:19;3.27;;;2.22;;
19788;SDS011;10054;59.332;18.244;2023-08-21T10:28:52;3.15;;;2.52;;
19788;SDS011;10054;59.332;18.244;2023-08-21T10:31:35;3.35;;;2.20;;
19788;SDS011;10054;59.332;18.244;2023-08-21T10:34:07;2.75;;;2.00;;
19788;SDS011;10054;59.332;18.244;2023-08-21T10:36:38;4.42;;;2.55;;
19788;SDS011;10054;59.332;18.244;2023-08-21T10:47:22;5.12;;;2.12;;
19788;SDS011;10054;59.332;18.244;2023-08-21T10:49:58;5.03;;;2.37;;
19788;SDS011;10054;59.332;18.244;2023-08-21T10:52:29;2.70;;;2.30;;
19788;SDS011;10054;59.332;18.244;2023-08-21T10:55:06;3.77;;;2.30;;
19788;SDS011;10054;59.332;18.244;2023-08-21T10:57:38;3.77;;;2.47;;
19788;SDS011;10054;59.332;18.244;2023-08-21T11:00:15;3.30;;;2.30;;
19788;SDS011;10054;59.332;18.244;2023-08-21T11:02:40;2.92;;;2.20;;
19788;SDS011;10054;59.332;18.244;2023-08-21T11:05:11;4.70;;;2.30;;
19788;SDS011;10054;59.332;18.244;2023-08-21T11:07:42;4.55;;;2.15;;
19788;SDS011;10054;59.332;18.244;2023-08-21T11:10:13;7.50;;;2.17;;
19788;SDS011;10054;59.332;18.244;2023-08-21T11:12:50;4.42;;;2.42;;
19788;SDS011;10054;59.332;18.244;2023-08-21T11:15:19;3.55;;;2.10;;
19788;SDS011;10054;59.332;18.244;2023-08-21T11:17:57;4.12;;;1.82;;
19788;SDS011;10054;59.332;18.244;2023-08-21T11:20:27;4.55;;;2.08;;
19788;SDS011;10054;59.332;18.244;2023-08-21T11:23:01;2.77;;;2.00;;
19788;SDS011;10054;59.332;18.244;2023-08-21T11:25:39;3.02;;;1.80;;
19788;SDS011;10054;59.332;18.244;2023-08-21T11:28:09;4.12;;;2.10;;
19788;SDS011;10054;59.332;18.244;2023-08-21T11:30:38;2.77;;;1.82;;
19788;SDS011;10054;59.332;18.244;2023-08-21T11:33:15;2.85;;;1.80;;
19788;SDS011;10054;59.332;18.244;2023-08-21T11:35:40;3.67;;;1.90;;
19788;SDS011;10054;59.332;18.244;2023-08-21T11:38:21;4.80;;;1.82;;
19788;SDS011;10054;59.332;18.244;2023-08-21T11:40:59;4.08;;;2.00;;
19788;SDS011;10054;59.332;18.244;2023-08-21T11:43:35;4.45;;;1.87;;
19788;SDS011;10054;59.332;18.244;2023-08-21T11:46:10;4.45;;;2.08;;
19788;SDS011;10054;59.332;18.244;2023-08-21T11:48:40;2.72;;;1.95;;
19788;SDS011;10054;59.332;18.244;2023-08-21T11:51:10;4.75;;;2.02;;
19788;SDS011;10054;59.332;18.244;2023-08-21T11:53:42;3.52;;;2.00;;
19788;SDS011;10054;59.332;18.244;2023-08-21T11:56:12;3.25;;;2.00;;
19788;SDS011;10054;59.332;18.244;2023-08-21T11:58:45;3.10;;;2.00;;
19788;SDS011;10054;59.332;18.244;2023-08-21T12:01:24;3.62;;;1.87;;
19788;SDS011;10054;59.332;18.244;2023-08-21T12:03:49;3.83;;;1.92;;
19788;SDS011;10054;59.332;18.244;2023-08-21T12:06:22;4.03;;;1.90;;
19788;SDS011;10054;59.332;18.244;2023-08-21T12:08:56;4.90;;;1.90;;
19788;SDS011;10054;59.332;18.244;2023-08-21T12:11:24;2.58;;;1.95;;
19788;SDS011;10054;59.332;18.244;2023-08-21T12:13:53;3.65;;;1.80;;
19788;SDS011;10054;59.332;18.244;2023-08-21T12:16:21;3.35;;;1.98;;
19788;SDS011;10054;59.332;18.244;2023-08-21T12:18:52;5.50;;;2.22;;
19788;SDS011;10054;59.332;18.244;2023-08-21T12:21:23;5.60;;;2.00;;
19788;SDS011;10054;59.332;18.244;2023-08-21T12:23:52;4.70;;;2.20;;
19788;SDS011;10054;59.332;18.244;2023-08-21T12:26:22;9.33;;;2.15;;
19788;SDS011;10054;59.332;18.244;2023-08-21T12:28:50;4.67;;;1.80;;
19788;SDS011;10054;59.332;18.244;2023-08-21T12:31:19;2.37;;;1.65;;
19788;SDS011;10054;59.332;18.244;2023-08-21T12:33:48;4.33;;;1.80;;
19788;SDS011;10054;59.332;18.244;2023-08-21T12:36:16;3.42;;;1.70;;
19788;SDS011;10054;59.332;18.244;2023-08-21T12:38:45;4.65;;;1.92;;
19788;SDS011;10054;59.332;18.244;2023-08-21T12:41:13;3.40;;;1.90;;
19788;SDS011;10054;59.332;18.244;2023-08-21T12:43:42;3.50;;;1.90;;
19788;SDS011;10054;59.332;18.244;2023-08-21T12:46:11;3.77;;;1.80;;
19788;SDS011;10054;59.332;18.244;2023-08-21T12:48:39;3.72;;;1.47;;
19788;SDS011;10054;59.332;18.244;2023-08-21T12:51:08;3.20;;;1.60;;
19788;SDS011;10054;59.332;18.244;2023-08-21T12:53:37;4.12;;;2.10;;
19788;SDS011;10054;59.332;18.244;2023-08-21T12:56:05;4.08;;;1.77;;
19788;SDS011;10054;59.332;18.244;2023-08-21T12:58:34;3.30;;;1.67;;
19788;SDS011;10054;59.332;18.244;2023-08-21T13:01:04;3.65;;;1.60;;
19788;SDS011;10054;59.332;18.244;2023-08-21T13:03:33;2.90;;;1.60;;
19788;SDS011;10054;59.332;18.244;2023-08-21T13:06:02;4.05;;;2.00;;
19788;SDS011;10054;59.332;18.244;2023-08-21T13:08:32;3.87;;;2.02;;
19788;SDS011;10054;59.332;18.244;2023-08-21T13:11:00;4.65;;;2.02;;
19788;SDS011;10054;59.332;18.244;2023-08-21T13:13:30;3.70;;;1.50;;
19788;SDS011;10054;59.332;18.244;2023-08-21T13:15:59;3.37;;;1.52;;
19788;SDS011;10054;59.332;18.244;2023-08-21T13:18:30;3.00;;;1.52;;
19788;SDS011;10054;59.332;18.244;2023-08-21T13:20:58;3.33;;;1.50;;
19788;SDS011;10054;59.332;18.244;2023-08-21T13:23:28;5.60;;;1.77;;
19788;SDS011;10054;59.332;18.244;2023-08-21T13:25:57;3.70;;;1.45;;
19788;SDS011;10054;59.332;18.244;2023-08-21T13:28:26;4.15;;;1.82;;
19788;SDS011;10054;59.332;18.244;2023-08-21T13:30:55;2.12;;;1.40;;
19788;SDS011;10054;59.332;18.244;2023-08-21T13:33:24;2.77;;;1.67;;
19788;SDS011;10054;59.332;18.244;2023-08-21T13:35:53;3.50;;;1.87;;
19788;SDS011;10054;59.332;18.244;2023-08-21T13:38:22;2.90;;;1.60;;
19788;SDS011;10054;59.332;18.244;2023-08-21T13:40:50;2.55;;;1.40;;
19788;SDS011;10054;59.332;18.244;2023-08-21T13:43:19;2.95;;;1.70;;
19788;SDS011;10054;59.332;18.244;2023-08-21T13:45:47;3.50;;;1.70;;
19788;SDS011;10054;59.332;18.244;2023-08-21T13:48:16;3.12;;;1.67;;
19788;SDS011;10054;59.332;18.244;2023-08-21T13:50:44;7.12;;;1.70;;
19788;SDS011;10054;59.332;18.244;2023-08-21T13:53:13;3.75;;;1.50;;
19788;SDS011;10054;59.332;18.244;2023-08-21T13:55:44;3.02;;;1.92;;
19788;SDS011;10054;59.332;18.244;2023-08-21T13:58:13;3.33;;;2.02;;
19788;SDS011;10054;59.332;18.244;2023-08-21T14:00:41;2.42;;;1.67;;
19788;SDS011;10054;59.332;18.244;2023-08-21T14:03:11;4.42;;;1.67;;
19788;SDS011;10054;59.332;18.244;2023-08-21T14:05:39;4.37;;;1.82;;
19788;SDS011;10054;59.332;18.244;2023-08-21T14:08:08;4.03;;;1.75;;
19788;SDS011;10054;59.332;18.244;2023-08-21T14:10:36;3.30;;;1.72;;
19788;SDS011;10054;59.332;18.244;2023-08-21T14:13:07;2.25;;;1.42;;
19788;SDS011;10054;59.332;18.244;2023-08-21T14:15:35;2.17;;;1.57;;
19788;SDS011;10054;59.332;18.244;2023-08-21T14:18:05;3.27;;;2.08;;
19788;SDS011;10054;59.332;18.244;2023-08-21T14:20:34;2.70;;;1.55;;
19788;SDS011;10054;59.332;18.244;2023-08-21T14:23:04;1.70;;;1.50;;
19788;SDS011;10054;59.332;18.244;2023-08-21T14:25:33;2.85;;;1.70;;
19788;SDS011;10054;59.332;18.244;2023-08-21T14:28:03;4.83;;;1.70;;
19788;SDS011;10054;59.332;18.244;2023-08-21T14:30:33;4.97;;;1.60;;
19788;SDS011;10054;59.332;18.244;2023-08-21T14:33:01;5.45;;;2.00;;
19788;SDS011;10054;59.332;18.244;2023-08-21T14:35:30;13.20;;;4.92;;
19788;SDS011;10054;59.332;18.244;2023-08-21T14:37:59;3.50;;;1.60;;
19788;SDS011;10054;59.332;18.244;2023-08-21T14:40:27;4.92;;;2.65;;
19788;SDS011;10054;59.332;18.244;2023-08-21T14:42:56;3.42;;;2.47;;
19788;SDS011;10054;59.332;18.244;2023-08-21T14:45:25;11.70;;;5.10;;
19788;SDS011;10054;59.332;18.244;2023-08-21T14:47:54;6.22;;;2.22;;
19788;SDS011;10054;59.332;18.244;2023-08-21T14:50:22;2.85;;;2.00;;
19788;SDS011;10054;59.332;18.244;2023-08-21T14:52:51;4.03;;;2.35;;